Voskresensk, Russia
Current Conditions -  °F | °C
As of 5:00 PM on Sunday 25 Jan 2015 (Local Time) from UUWW Reporting Station
Clear Clear  
Wind Chill:   Ceiling: Unl
Heat Index: 12°   Visibility: 6mi
Dew Point:   Wind: 7mph
Humidity: 79%   Direction: 160°SSE
Pressure: 30.42"   Gusts: NA
Location:  55.27°N, 36.74°E
Report Text: UUWW 251400Z 16003MPS CAVOK M11/M14 Q1030 06410250 NOSIG
Loading
Personal Weather Stations






























Interactive Weather Map New forecast layout! Learn more

10-Day Weather Forecast

Advertisements
Track Severe Weather on mobile